createdAt,value
2017-09-05T00:00:12.945Z,1.5
2017-09-05T00:01:15.366Z,1.4
2017-09-05T00:02:17.778Z,1.4
2017-09-05T00:03:20.195Z,1.4
2017-09-05T00:04:22.619Z,1.5
2017-09-05T00:05:25.039Z,1.4
2017-09-05T00:06:27.457Z,1.4
2017-09-05T00:07:29.883Z,1.5
2017-09-05T00:08:32.309Z,1.4
2017-09-05T00:09:34.729Z,1.5
2017-09-05T00:10:37.150Z,1.4
2017-09-05T00:11:39.574Z,1.4
2017-09-05T00:12:41.993Z,1.4
2017-09-05T00:13:44.418Z,1.4
2017-09-05T00:14:46.838Z,1.4
2017-09-05T00:15:49.257Z,1.4
2017-09-05T00:16:51.684Z,1.4
2017-09-05T00:17:54.109Z,1.5
2017-09-05T00:18:56.525Z,1.4
2017-09-05T00:19:58.952Z,1.5
2017-09-05T00:21:01.377Z,1.4
2017-09-05T00:22:03.793Z,1.4
2017-09-05T00:23:06.225Z,1.4
2017-09-05T00:24:08.643Z,1.4
2017-09-05T00:25:11.066Z,1.4
2017-09-05T00:26:13.489Z,1.4
2017-09-05T00:27:15.913Z,1.4
2017-09-05T00:28:18.334Z,1.4
2017-09-05T00:29:20.757Z,1.4
2017-09-05T00:30:23.173Z,1.4
2017-09-05T00:31:25.594Z,1.4
2017-09-05T00:32:28.021Z,1.4
2017-09-05T00:33:30.438Z,1.4
2017-09-05T00:34:32.862Z,1.4
2017-09-05T00:35:35.288Z,1.4
2017-09-05T00:36:37.717Z,1.4
2017-09-05T00:37:40.136Z,1.4
2017-09-05T00:38:42.564Z,1.4
2017-09-05T00:39:44.989Z,1.4
2017-09-05T00:40:47.407Z,1.4
2017-09-05T00:41:50.172Z,1.5
2017-09-05T00:42:52.594Z,1.4
2017-09-05T00:43:55.006Z,1.5
2017-09-05T00:44:57.441Z,1.4
2017-09-05T00:45:59.855Z,1.4
2017-09-05T00:47:02.274Z,1.4
2017-09-05T00:48:04.700Z,1.3
2017-09-05T00:49:07.122Z,1.3
2017-09-05T00:50:09.542Z,1.5
2017-09-05T00:51:11.962Z,1.4
2017-09-05T00:52:14.382Z,1.4
2017-09-05T00:53:17.144Z,1.4
2017-09-05T00:54:19.572Z,1.4
2017-09-05T00:55:21.988Z,1.4
2017-09-05T00:56:24.403Z,1.4
2017-09-05T00:57:26.828Z,1.4
2017-09-05T00:58:29.263Z,1.4
2017-09-05T00:59:31.685Z,1.4
2017-09-05T01:00:34.107Z,1.4
2017-09-05T01:01:36.525Z,1.4
2017-09-05T01:02:38.950Z,1.4
2017-09-05T01:03:41.370Z,1.4
2017-09-05T01:04:43.830Z,1.4
2017-09-05T01:05:46.243Z,1.4
2017-09-05T01:06:48.658Z,1.4
2017-09-05T01:07:51.074Z,1.4
2017-09-05T01:08:53.504Z,1.4
2017-09-05T01:09:55.927Z,1.4
2017-09-05T01:10:58.338Z,1.4
2017-09-05T01:12:00.764Z,1.4
2017-09-05T01:13:03.186Z,1.5
2017-09-05T01:14:05.607Z,1.5
2017-09-05T01:15:08.031Z,1.5
2017-09-05T01:16:10.447Z,1.6
2017-09-05T01:17:12.865Z,1.5
2017-09-05T01:18:15.297Z,1.4
2017-09-05T01:19:17.718Z,1.5
2017-09-05T01:20:20.484Z,1.4
2017-09-05T01:21:22.905Z,1.5
2017-09-05T01:22:25.327Z,1.4
2017-09-05T01:23:27.747Z,1.5
2017-09-05T01:24:30.169Z,1.5
2017-09-05T01:25:32.588Z,1.4
2017-09-05T01:26:35.004Z,1.4
2017-09-05T01:27:37.432Z,1.5
2017-09-05T01:28:39.850Z,1.4
2017-09-05T01:29:42.275Z,1.4
2017-09-05T01:30:44.697Z,1.4
2017-09-05T01:31:47.115Z,1.4
2017-09-05T01:32:49.536Z,1.4
2017-09-05T01:33:51.962Z,1.5
2017-09-05T01:34:54.381Z,1.5
2017-09-05T01:35:56.806Z,1.5
2017-09-05T01:36:59.233Z,1.4
2017-09-05T01:38:01.647Z,1.6
2017-09-05T01:39:04.069Z,1.5
2017-09-05T01:40:06.491Z,1.5
2017-09-05T01:41:08.916Z,1.5
2017-09-05T01:42:11.334Z,1.6
2017-09-05T01:43:13.761Z,1.6
2017-09-05T01:44:16.183Z,1.5
2017-09-05T01:45:18.604Z,1.6
2017-09-05T01:46:21.029Z,1.5
2017-09-05T01:47:23.447Z,1.4
2017-09-05T01:48:25.869Z,1.5
2017-09-05T01:49:28.289Z,1.4
2017-09-05T01:50:30.706Z,1.4
2017-09-05T01:51:33.128Z,1.4
2017-09-05T01:52:35.881Z,1.4
2017-09-05T01:53:38.300Z,1.4
2017-09-05T01:54:40.714Z,1.4
2017-09-05T01:55:43.145Z,1.5
2017-09-05T01:56:45.555Z,1.4
2017-09-05T01:57:47.976Z,1.4
2017-09-05T01:58:50.403Z,1.4
2017-09-05T01:59:52.830Z,1.4
2017-09-05T02:00:55.256Z,1.4
2017-09-05T02:01:58.024Z,1.4
2017-09-05T02:03:00.779Z,1.4
2017-09-05T02:04:03.207Z,1.4
2017-09-05T02:05:05.632Z,1.4
2017-09-05T02:06:08.051Z,1.4
2017-09-05T02:07:10.808Z,1.4
2017-09-05T02:08:13.240Z,1.5
2017-09-05T02:09:15.651Z,1.4
2017-09-05T02:10:18.073Z,1.4
2017-09-05T02:11:20.499Z,1.5
2017-09-05T02:12:22.919Z,1.4
2017-09-05T02:13:25.343Z,1.4
2017-09-05T02:14:27.770Z,1.4
2017-09-05T02:15:30.188Z,1.4
2017-09-05T02:16:32.613Z,1.4
2017-09-05T02:17:35.035Z,1.4
2017-09-05T02:18:37.453Z,1.4
2017-09-05T02:19:39.867Z,1.4
2017-09-05T02:20:42.292Z,1.4
2017-09-05T02:21:44.708Z,1.4
2017-09-05T02:22:47.469Z,1.4
2017-09-05T02:23:49.895Z,1.4
2017-09-05T02:24:52.317Z,1.4
2017-09-05T02:25:54.737Z,1.4
2017-09-05T02:26:57.168Z,1.4
2017-09-05T02:27:59.583Z,1.4
2017-09-05T02:29:02.010Z,1.4
2017-09-05T02:30:04.432Z,1.4
2017-09-05T02:31:07.194Z,1.4
2017-09-05T02:32:09.613Z,1.4
2017-09-05T02:33:12.030Z,1.4
2017-09-05T02:34:14.441Z,1.4
2017-09-05T02:35:16.866Z,1.4
2017-09-05T02:36:19.288Z,1.4
2017-09-05T02:37:21.710Z,1.4
2017-09-05T02:38:24.476Z,1.4
2017-09-05T02:39:26.900Z,1.4
2017-09-05T02:40:29.326Z,1.4
2017-09-05T02:41:31.747Z,1.4
2017-09-05T02:42:34.172Z,1.4
2017-09-05T02:43:36.587Z,1.4
2017-09-05T02:44:39.009Z,1.4
2017-09-05T02:45:41.437Z,1.4
2017-09-05T02:46:43.860Z,1.4
2017-09-05T02:47:46.281Z,1.4
2017-09-05T02:48:48.699Z,1.4
2017-09-05T02:49:51.118Z,1.3
2017-09-05T02:50:53.544Z,1.4
2017-09-05T02:51:56.307Z,1.4
2017-09-05T02:52:58.726Z,1.4
2017-09-05T02:54:01.149Z,1.4
2017-09-05T02:55:03.576Z,1.3
2017-09-05T02:56:05.994Z,1.4
2017-09-05T02:57:08.420Z,1.4
2017-09-05T02:58:10.836Z,1.4
2017-09-05T02:59:13.594Z,1.4
2017-09-05T03:00:16.023Z,1.4
2017-09-05T03:01:18.783Z,1.4
2017-09-05T03:02:21.204Z,1.4
2017-09-05T03:03:23.623Z,1.4
2017-09-05T03:04:26.042Z,1.4
2017-09-05T03:05:28.461Z,1.4
2017-09-05T03:06:30.878Z,1.3
2017-09-05T03:07:33.298Z,1.4
2017-09-05T03:08:35.713Z,1.4
2017-09-05T03:09:38.144Z,1.4
2017-09-05T03:10:40.562Z,1.4
2017-09-05T03:11:42.984Z,1.4
2017-09-05T03:12:45.407Z,1.4
2017-09-05T03:13:47.828Z,1.4
2017-09-05T03:14:50.247Z,1.4
2017-09-05T03:15:52.667Z,1.4
2017-09-05T03:16:55.083Z,1.4
2017-09-05T03:17:57.503Z,1.4
2017-09-05T03:18:59.924Z,1.4
2017-09-05T03:20:02.353Z,1.4
2017-09-05T03:21:05.121Z,1.4
2017-09-05T03:22:07.881Z,1.4
2017-09-05T03:23:10.298Z,1.4
2017-09-05T03:24:12.726Z,1.4
2017-09-05T03:25:15.138Z,1.4
2017-09-05T03:26:17.553Z,1.4
2017-09-05T03:27:19.975Z,1.4
2017-09-05T03:28:22.397Z,1.4
2017-09-05T03:29:24.817Z,1.4
2017-09-05T03:30:27.245Z,1.4
2017-09-05T03:31:29.656Z,1.4
2017-09-05T03:32:32.082Z,1.4
2017-09-05T03:33:34.509Z,1.4
2017-09-05T03:34:36.930Z,1.4
2017-09-05T03:35:39.350Z,1.4
2017-09-05T03:36:41.772Z,1.4
2017-09-05T03:37:44.191Z,1.4
2017-09-05T03:38:46.613Z,1.4
2017-09-05T03:39:49.031Z,1.4
2017-09-05T03:40:51.802Z,1.4
2017-09-05T03:41:54.217Z,1.4
2017-09-05T03:42:56.786Z,1.4
2017-09-05T03:43:59.205Z,1.4
2017-09-05T03:45:01.962Z,1.4
2017-09-05T03:46:04.384Z,1.4
2017-09-05T03:47:06.805Z,1.4
2017-09-05T03:48:09.223Z,1.3
2017-09-05T03:49:11.647Z,1.4
2017-09-05T03:50:14.069Z,1.4
2017-09-05T03:51:16.490Z,1.4
2017-09-05T03:52:18.918Z,1.4
2017-09-05T03:53:21.336Z,1.4
2017-09-05T03:54:23.750Z,1.4
2017-09-05T03:55:26.177Z,1.4
2017-09-05T03:56:28.596Z,1.4
2017-09-05T03:57:31.020Z,1.4
2017-09-05T03:58:33.441Z,1.4
2017-09-05T03:59:35.859Z,1.4
2017-09-05T04:00:38.282Z,1.4
2017-09-05T04:01:40.699Z,1.4
2017-09-05T04:02:43.114Z,1.4
2017-09-05T04:03:45.874Z,1.4
2017-09-05T04:04:48.300Z,1.4
2017-09-05T04:05:50.725Z,1.4
2017-09-05T04:06:53.138Z,1.4
2017-09-05T04:07:55.561Z,1.4
2017-09-05T04:08:57.989Z,1.4
2017-09-05T04:10:00.402Z,1.4
2017-09-05T04:11:02.825Z,1.4
2017-09-05T04:12:05.246Z,1.4
2017-09-05T04:13:07.659Z,1.4
2017-09-05T04:14:10.086Z,1.4
2017-09-05T04:15:12.511Z,1.5
2017-09-05T04:16:14.930Z,1.4
2017-09-05T04:17:17.358Z,1.4
2017-09-05T04:18:19.776Z,1.4
2017-09-05T04:19:22.201Z,1.4
2017-09-05T04:20:24.630Z,1.4
2017-09-05T04:21:27.038Z,1.4
2017-09-05T04:22:29.458Z,1.4
2017-09-05T04:23:31.885Z,1.4
2017-09-05T04:24:34.307Z,1.4
2017-09-05T04:25:36.731Z,1.4
2017-09-05T04:26:39.151Z,1.4
2017-09-05T04:27:41.573Z,1.4
2017-09-05T04:28:44.707Z,1.4
2017-09-05T04:29:47.131Z,1.4
2017-09-05T04:30:49.548Z,1.4
2017-09-05T04:31:51.972Z,1.4
2017-09-05T04:32:54.388Z,1.4
2017-09-05T04:33:56.811Z,1.4
2017-09-05T04:34:59.238Z,1.4
2017-09-05T04:36:01.656Z,1.4
2017-09-05T04:37:04.079Z,1.4
2017-09-05T04:38:06.499Z,1.4
2017-09-05T04:39:08.913Z,1.4
2017-09-05T04:40:11.341Z,1.4
2017-09-05T04:41:13.753Z,1.4
2017-09-05T04:42:16.181Z,1.4
2017-09-05T04:43:18.597Z,1.4
2017-09-05T04:44:21.019Z,1.4
2017-09-05T04:45:23.440Z,1.4
2017-09-05T04:46:25.860Z,1.4
2017-09-05T04:47:28.272Z,1.4
2017-09-05T04:48:30.697Z,1.4
2017-09-05T04:49:33.461Z,1.4
2017-09-05T04:50:35.883Z,1.4
2017-09-05T04:51:38.307Z,1.4
2017-09-05T04:52:40.728Z,1.4
2017-09-05T04:53:43.150Z,1.4
2017-09-05T04:54:45.580Z,1.4
2017-09-05T04:55:48.000Z,1.4
2017-09-05T04:56:50.427Z,1.5
2017-09-05T04:57:52.848Z,1.5
2017-09-05T04:58:55.271Z,1.4
2017-09-05T04:59:57.697Z,1.4
2017-09-05T05:01:00.118Z,1.4
2017-09-05T05:02:02.527Z,1.4
2017-09-05T05:03:04.955Z,1.4
2017-09-05T05:04:07.379Z,1.4
2017-09-05T05:05:10.149Z,1.4
2017-09-05T05:06:12.580Z,1.5
2017-09-05T05:07:14.998Z,1.4
2017-09-05T05:08:17.418Z,1.4
2017-09-05T05:09:19.841Z,1.5
2017-09-05T05:10:22.264Z,1.4
2017-09-05T05:11:24.689Z,1.4
2017-09-05T05:12:27.113Z,1.5
2017-09-05T05:13:29.528Z,1.5
2017-09-05T05:14:31.954Z,1.4
2017-09-05T05:15:34.383Z,1.5
2017-09-05T05:16:36.805Z,1.5
2017-09-05T05:17:39.230Z,1.6
2017-09-05T05:18:41.649Z,1.5
2017-09-05T05:19:44.067Z,1.6
2017-09-05T05:20:46.499Z,1.5
2017-09-05T05:21:48.918Z,1.6
2017-09-05T05:22:51.344Z,1.5
2017-09-05T05:23:53.767Z,1.5
2017-09-05T05:24:56.191Z,1.5
2017-09-05T05:25:58.618Z,1.6
2017-09-05T05:27:01.040Z,1.5
2017-09-05T05:28:03.455Z,1.6
2017-09-05T05:29:05.903Z,1.6
2017-09-05T05:30:08.308Z,1.6
2017-09-05T05:31:10.732Z,1.5
2017-09-05T05:32:13.157Z,1.6
2017-09-05T05:33:15.587Z,1.6
2017-09-05T05:34:18.010Z,1.6
2017-09-05T05:35:20.430Z,1.6
2017-09-05T05:36:23.189Z,1.5
2017-09-05T05:37:25.617Z,1.6
2017-09-05T05:38:28.040Z,1.6
2017-09-05T05:39:30.460Z,1.6
2017-09-05T05:40:32.892Z,1.6
2017-09-05T05:41:35.314Z,1.6
2017-09-05T05:42:37.739Z,1.6
2017-09-05T05:43:40.165Z,1.6
2017-09-05T05:44:42.931Z,1.7
2017-09-05T05:45:45.349Z,1.5
2017-09-05T05:46:47.779Z,1.6
2017-09-05T05:47:50.197Z,1.6
2017-09-05T05:48:52.618Z,1.6
2017-09-05T05:49:55.040Z,1.6
2017-09-05T05:50:57.459Z,1.6
2017-09-05T05:51:59.892Z,1.6
2017-09-05T05:53:02.314Z,1.6
2017-09-05T05:54:04.729Z,1.6
2017-09-05T05:55:07.165Z,1.6
2017-09-05T05:56:09.582Z,1.5
2017-09-05T05:57:12.005Z,1.5
2017-09-05T05:58:14.431Z,1.6
2017-09-05T05:59:16.850Z,1.6
2017-09-05T06:00:19.276Z,1.6
2017-09-05T06:01:21.705Z,1.5
2017-09-05T06:02:24.131Z,1.6
2017-09-05T06:03:26.547Z,1.6
2017-09-05T06:04:28.971Z,1.6
2017-09-05T06:05:31.397Z,1.6
2017-09-05T06:06:34.158Z,1.6
2017-09-05T06:07:36.581Z,1.6
2017-09-05T06:08:39.357Z,1.6
2017-09-05T06:09:41.780Z,1.6
2017-09-05T06:10:44.212Z,1.6
2017-09-05T06:11:46.635Z,1.6
2017-09-05T06:12:49.047Z,1.6
2017-09-05T06:13:51.477Z,1.6
2017-09-05T06:14:53.901Z,1.6
2017-09-05T06:15:56.327Z,1.6
2017-09-05T06:16:58.777Z,1.6
2017-09-05T06:18:01.163Z,1.6
2017-09-05T06:19:03.594Z,1.6
2017-09-05T06:20:06.024Z,1.6
2017-09-05T06:21:08.442Z,1.6
2017-09-05T06:22:10.866Z,1.6
2017-09-05T06:23:13.292Z,1.7
2017-09-05T06:24:15.714Z,1.6
2017-09-05T06:25:18.139Z,1.7
2017-09-05T06:26:20.908Z,1.6
2017-09-05T06:27:23.330Z,1.7
2017-09-05T06:28:25.756Z,1.7
2017-09-05T06:29:28.183Z,1.7
2017-09-05T06:30:30.608Z,1.7
2017-09-05T06:31:33.023Z,1.7
2017-09-05T06:32:35.445Z,1.7
2017-09-05T06:33:37.867Z,1.7
2017-09-05T06:34:40.291Z,1.7
2017-09-05T06:35:42.714Z,1.7
2017-09-05T06:36:45.152Z,1.7
2017-09-05T06:37:47.574Z,1.7
2017-09-05T06:38:50.002Z,1.8
2017-09-05T06:39:52.429Z,1.7
2017-09-05T06:40:54.855Z,1.7
2017-09-05T06:41:57.280Z,1.7
2017-09-05T06:42:59.711Z,1.8
2017-09-05T06:44:02.133Z,1.8
2017-09-05T06:45:04.564Z,1.7
2017-09-05T06:46:06.995Z,1.8
2017-09-05T06:47:09.420Z,1.8
2017-09-05T06:48:11.846Z,1.8
2017-09-05T06:49:14.270Z,1.8
2017-09-05T06:50:16.694Z,1.8
2017-09-05T06:51:19.125Z,1.8
2017-09-05T06:52:21.546Z,1.8
2017-09-05T06:53:23.971Z,1.8
2017-09-05T06:54:26.397Z,1.8
2017-09-05T06:55:29.163Z,1.8
2017-09-05T06:56:31.599Z,1.8
2017-09-05T06:57:34.033Z,1.8
2017-09-05T06:58:36.460Z,1.9
2017-09-05T06:59:38.892Z,1.8
2017-09-05T07:00:41.330Z,1.9
2017-09-05T07:01:43.757Z,1.9
2017-09-05T07:02:46.179Z,1.9
2017-09-05T07:03:48.610Z,1.9
2017-09-05T07:04:51.033Z,1.9
2017-09-05T07:05:53.461Z,1.9
2017-09-05T07:06:55.888Z,1.9
2017-09-05T07:07:58.319Z,1.9
2017-09-05T07:09:00.743Z,2
2017-09-05T07:10:03.177Z,1.9
2017-09-05T07:11:05.603Z,1.9
2017-09-05T07:12:08.030Z,2
2017-09-05T07:13:10.806Z,2
2017-09-05T07:14:13.241Z,2
2017-09-05T07:15:15.666Z,2
2017-09-05T07:16:18.103Z,2
2017-09-05T07:17:20.523Z,2
2017-09-05T07:18:22.952Z,2
2017-09-05T07:19:25.737Z,2
2017-09-05T07:20:28.160Z,2
2017-09-05T07:21:30.587Z,2
2017-09-05T07:22:33.021Z,2
2017-09-05T07:23:35.449Z,2
2017-09-05T07:24:37.885Z,2.1
2017-09-05T07:25:40.314Z,2
2017-09-05T07:26:42.734Z,2.1
2017-09-05T07:27:45.169Z,2
2017-09-05T07:28:47.938Z,2.1
2017-09-05T07:29:50.370Z,2.1
2017-09-05T07:30:52.796Z,2.3
2017-09-05T07:31:55.232Z,2.1
2017-09-05T07:32:57.662Z,2.1
2017-09-05T07:34:00.092Z,2.1
2017-09-05T07:35:02.528Z,2.1
2017-09-05T07:36:04.964Z,2.1
2017-09-05T07:37:07.394Z,2.2
2017-09-05T07:38:09.834Z,2.1
2017-09-05T07:39:12.256Z,2.2
2017-09-05T07:40:14.681Z,2.2
2017-09-05T07:41:17.121Z,2.2
2017-09-05T07:42:19.549Z,2.2
2017-09-05T07:43:21.973Z,2.2
2017-09-05T07:44:24.404Z,2.1
2017-09-05T07:45:26.832Z,2.2
2017-09-05T07:46:29.267Z,2.2
2017-09-05T07:47:31.697Z,2.2
2017-09-05T07:48:34.132Z,2.2
2017-09-05T07:49:36.557Z,2.3
2017-09-05T07:50:38.999Z,2.2
2017-09-05T07:51:41.430Z,2.3
2017-09-05T07:52:43.859Z,2.3
2017-09-05T07:53:46.291Z,2.3
2017-09-05T07:54:48.720Z,2.3
2017-09-05T07:55:51.152Z,2.3
2017-09-05T07:56:53.587Z,2.4
2017-09-05T07:57:56.013Z,2.3
2017-09-05T07:58:58.443Z,2.3
2017-09-05T08:00:00.873Z,2.4
2017-09-05T08:01:03.310Z,2.4
2017-09-05T08:02:05.742Z,2.4
2017-09-05T08:03:08.175Z,2.4
2017-09-05T08:04:10.614Z,2.4
2017-09-05T08:05:13.379Z,2.3
2017-09-05T08:06:15.814Z,2.4
2017-09-05T08:07:18.244Z,2.4
2017-09-05T08:08:20.673Z,2.4
2017-09-05T08:09:23.100Z,2.3
2017-09-05T08:10:25.534Z,2.4
2017-09-05T08:11:27.969Z,2.4
2017-09-05T08:12:30.403Z,2.4
2017-09-05T08:13:32.840Z,2.5
2017-09-05T08:14:35.263Z,2.4
2017-09-05T08:15:37.705Z,2.4
2017-09-05T08:16:40.138Z,2.5
2017-09-05T08:17:42.574Z,2.5
2017-09-05T08:18:45.013Z,2.5
2017-09-05T08:19:47.446Z,2.5
2017-09-05T08:20:49.879Z,2.5
2017-09-05T08:21:52.313Z,2.6
2017-09-05T08:22:54.744Z,2.6
2017-09-05T08:23:57.177Z,2.5
2017-09-05T08:24:59.972Z,2.6
2017-09-05T08:26:02.407Z,2.7
2017-09-05T08:27:05.186Z,2.8
2017-09-05T08:28:07.624Z,2.7
2017-09-05T08:29:10.057Z,2.7
2017-09-05T08:30:12.494Z,2.7
2017-09-05T08:31:14.934Z,2.7
2017-09-05T08:32:17.366Z,2.7
2017-09-05T08:33:19.799Z,2.8
2017-09-05T08:34:22.235Z,2.7
2017-09-05T08:35:24.670Z,2.8
2017-09-05T08:36:27.100Z,2.8
2017-09-05T08:37:29.536Z,2.8
2017-09-05T08:38:32.304Z,2.9
2017-09-05T08:39:34.744Z,2.9
2017-09-05T08:40:37.527Z,2.9
2017-09-05T08:41:39.965Z,3
2017-09-05T08:42:42.403Z,3.2
2017-09-05T08:43:44.841Z,3
2017-09-05T08:44:47.631Z,3
2017-09-05T08:45:50.072Z,3
2017-09-05T08:46:52.510Z,3.1
2017-09-05T08:47:54.949Z,3
2017-09-05T08:48:57.378Z,3.1
2017-09-05T08:49:59.826Z,3.1
2017-09-05T08:51:02.259Z,3.1
2017-09-05T08:52:04.691Z,3.3
2017-09-05T08:53:07.130Z,3.3
2017-09-05T08:54:09.569Z,3.2
2017-09-05T08:55:12.014Z,3.3
2017-09-05T08:56:14.459Z,3.3
2017-09-05T08:57:16.900Z,3.3
2017-09-05T08:58:19.701Z,3.4
2017-09-05T08:59:22.145Z,3.5
2017-09-05T09:00:24.592Z,3.4
2017-09-05T09:01:27.024Z,3.7
2017-09-05T09:02:29.462Z,3.5
2017-09-05T09:03:31.904Z,3.5
2017-09-05T09:04:34.353Z,3.5
2017-09-05T09:05:36.786Z,3.4
2017-09-05T09:06:39.619Z,3.7
2017-09-05T09:07:42.065Z,3.5
2017-09-05T09:08:44.509Z,3.5
2017-09-05T09:09:46.957Z,3.6
2017-09-05T09:10:49.746Z,3.6
2017-09-05T09:11:52.184Z,3.6
2017-09-05T09:12:54.635Z,3.8
2017-09-05T09:13:57.080Z,3.6
2017-09-05T09:14:59.521Z,3.7
2017-09-05T09:16:01.976Z,3.6
2017-09-05T09:17:04.416Z,3.7
2017-09-05T09:18:06.857Z,3.7
2017-09-05T09:19:09.304Z,3.7
2017-09-05T09:20:12.097Z,3.7
2017-09-05T09:21:14.539Z,3.7
2017-09-05T09:22:16.995Z,3.7
2017-09-05T09:23:19.435Z,3.8
2017-09-05T09:24:22.426Z,3.8
2017-09-05T09:25:24.884Z,4.2
2017-09-05T09:26:27.671Z,3.9
2017-09-05T09:27:30.118Z,3.9
2017-09-05T09:28:32.565Z,3.9
2017-09-05T09:29:35.357Z,4.2
2017-09-05T09:30:37.796Z,4.5
2017-09-05T09:31:40.245Z,4.1
2017-09-05T09:32:42.698Z,4
2017-09-05T09:33:45.143Z,4
2017-09-05T09:34:47.593Z,4
2017-09-05T09:35:50.050Z,4
2017-09-05T09:36:52.494Z,4.4
2017-09-05T09:37:54.950Z,4.1
2017-09-05T09:38:57.404Z,4.3
2017-09-05T09:39:59.846Z,4.3
2017-09-05T09:41:02.297Z,4.6
2017-09-05T09:42:04.744Z,4.2
2017-09-05T09:43:07.190Z,4.2
2017-09-05T09:44:09.645Z,4.3
2017-09-05T09:45:12.445Z,4.3
2017-09-05T09:46:14.894Z,4.3
2017-09-05T09:47:17.348Z,4.4
2017-09-05T09:48:19.793Z,4.3
2017-09-05T09:49:22.243Z,4.7
2017-09-05T09:50:24.685Z,4.4
2017-09-05T09:51:27.133Z,4.4
2017-09-05T09:52:29.582Z,4.4
2017-09-05T09:53:32.044Z,4.5
2017-09-05T09:54:34.487Z,4.4
2017-09-05T09:55:36.936Z,4.8
2017-09-05T09:56:39.383Z,4.6
2017-09-05T09:57:41.835Z,4.5
2017-09-05T09:58:44.284Z,4.5
2017-09-05T09:59:46.735Z,4.5
2017-09-05T10:00:49.184Z,4.5
2017-09-05T10:01:51.627Z,4.6
2017-09-05T10:02:54.071Z,4.5
2017-09-05T10:03:56.526Z,4.7
2017-09-05T10:04:58.968Z,4.6
2017-09-05T10:06:01.416Z,4.6
2017-09-05T10:07:03.866Z,4.6
2017-09-05T10:08:06.307Z,4.8
2017-09-05T10:09:08.756Z,4.7
2017-09-05T10:10:11.208Z,4.7
2017-09-05T10:11:13.660Z,4.9
2017-09-05T10:12:16.814Z,4.6
2017-09-05T10:13:19.605Z,4.8
2017-09-05T10:14:22.048Z,4.7
2017-09-05T10:15:24.502Z,4.7
2017-09-05T10:16:26.946Z,4.8
2017-09-05T10:17:29.393Z,4.7
2017-09-05T10:18:32.184Z,4.7
2017-09-05T10:19:34.637Z,4.7
2017-09-05T10:20:37.080Z,5.1
2017-09-05T10:21:39.537Z,4.9
2017-09-05T10:22:42.312Z,4.8
2017-09-05T10:23:44.761Z,4.8
2017-09-05T10:24:47.206Z,4.7
2017-09-05T10:25:49.654Z,4.8
2017-09-05T10:26:52.441Z,4.9
2017-09-05T10:27:54.896Z,4.9
2017-09-05T10:28:57.342Z,4.9
2017-09-05T10:29:59.791Z,4.9
2017-09-05T10:31:02.239Z,4.9
2017-09-05T10:32:05.031Z,4.9
2017-09-05T10:33:07.482Z,4.9
2017-09-05T10:34:09.928Z,5
2017-09-05T10:35:12.388Z,4.9
2017-09-05T10:36:14.836Z,5
2017-09-05T10:37:17.283Z,4.9
2017-09-05T10:38:19.735Z,5
2017-09-05T10:39:22.182Z,5
2017-09-05T10:40:24.632Z,5
2017-09-05T10:41:27.085Z,5.1
2017-09-05T10:42:29.530Z,5
2017-09-05T10:43:32.326Z,4.9
2017-09-05T10:44:34.776Z,4.9
2017-09-05T10:45:37.224Z,5
2017-09-05T10:46:39.678Z,5
2017-09-05T10:47:42.125Z,4.9
2017-09-05T10:48:44.568Z,5.3
2017-09-05T10:49:47.020Z,5
2017-09-05T10:50:49.469Z,4.9
2017-09-05T10:51:51.915Z,5
2017-09-05T10:52:54.370Z,5.1
2017-09-05T10:53:56.818Z,5
2017-09-05T10:54:59.264Z,5
2017-09-05T10:56:01.722Z,5.1
2017-09-05T10:57:04.516Z,5
2017-09-05T10:58:07.306Z,5.1
2017-09-05T10:59:09.754Z,5.1
2017-09-05T11:00:12.206Z,5
2017-09-05T11:01:14.662Z,5.1
2017-09-05T11:02:17.114Z,5.1
2017-09-05T11:03:19.911Z,5.1
2017-09-05T11:04:22.361Z,5.2
2017-09-05T11:05:24.807Z,5.1
2017-09-05T11:06:27.254Z,5.1
2017-09-05T11:07:29.706Z,5.1
2017-09-05T11:08:32.158Z,5.1
2017-09-05T11:09:34.604Z,5.2
2017-09-05T11:10:37.064Z,5.1
2017-09-05T11:11:39.514Z,5.1
2017-09-05T11:12:41.965Z,5.2
2017-09-05T11:13:44.413Z,5.1
2017-09-05T11:14:46.863Z,5.1
2017-09-05T11:15:49.319Z,5
2017-09-05T11:16:51.775Z,5.2
2017-09-05T11:17:54.216Z,5.3
2017-09-05T11:18:56.673Z,5.2
2017-09-05T11:19:59.121Z,5.2
2017-09-05T11:21:01.918Z,5.2
2017-09-05T11:22:04.368Z,5.2
2017-09-05T11:23:06.813Z,5.2
2017-09-05T11:24:09.258Z,5.2
2017-09-05T11:25:11.714Z,5.2
2017-09-05T11:26:14.210Z,5.2
2017-09-05T11:27:16.662Z,5.2
2017-09-05T11:28:19.109Z,5
2017-09-05T11:29:21.570Z,5.1
2017-09-05T11:30:24.014Z,5.1
2017-09-05T11:31:26.461Z,5
2017-09-05T11:32:28.913Z,4.9
2017-09-05T11:33:31.365Z,5.2
2017-09-05T11:34:33.817Z,5.1
2017-09-05T11:35:36.279Z,5.1
2017-09-05T11:36:38.722Z,5.1
2017-09-05T11:37:41.183Z,5.1
2017-09-05T11:38:43.637Z,5.1
2017-09-05T11:39:46.088Z,5.1
2017-09-05T11:40:48.538Z,5.1
2017-09-05T11:41:50.983Z,5
2017-09-05T11:42:53.432Z,5
2017-09-05T11:43:55.892Z,5
2017-09-05T11:44:58.337Z,5.2
2017-09-05T11:46:00.788Z,5.3
2017-09-05T11:47:03.236Z,5
2017-09-05T11:48:05.689Z,5
2017-09-05T11:49:08.140Z,5.1
2017-09-05T11:50:10.597Z,5
2017-09-05T11:51:13.049Z,5.1
2017-09-05T11:52:15.499Z,5
2017-09-05T11:53:17.955Z,5.2
2017-09-05T11:54:20.404Z,5.1
2017-09-05T11:55:22.853Z,5
2017-09-05T11:56:25.307Z,5.1
2017-09-05T11:57:27.755Z,5.1
2017-09-05T11:58:30.198Z,5.1
2017-09-05T11:59:32.648Z,5
2017-09-05T12:00:35.096Z,5
2017-09-05T12:01:37.550Z,5.1
2017-09-05T12:02:39.995Z,5.1
2017-09-05T12:03:42.448Z,5
2017-09-05T12:04:44.926Z,5.1
2017-09-05T12:05:47.384Z,5.2
2017-09-05T12:06:49.837Z,5.1
2017-09-05T12:07:52.642Z,5.1
2017-09-05T12:08:55.427Z,5.2
2017-09-05T12:09:57.884Z,5.1
2017-09-05T12:11:00.333Z,5.1
2017-09-05T12:12:02.780Z,5.1
2017-09-05T12:13:05.229Z,5.2
2017-09-05T12:14:07.679Z,5.1
2017-09-05T12:15:10.132Z,5
2017-09-05T12:16:12.588Z,5.1
2017-09-05T12:17:15.030Z,5.1
2017-09-05T12:18:17.481Z,5.1
2017-09-05T12:19:19.933Z,5
2017-09-05T12:20:22.390Z,5
2017-09-05T12:21:24.839Z,5.1
2017-09-05T12:22:27.641Z,5.1
2017-09-05T12:23:30.429Z,5
2017-09-05T12:24:32.886Z,5.1
2017-09-05T12:25:35.335Z,5.1
2017-09-05T12:26:37.778Z,5.1
2017-09-05T12:27:40.232Z,5
2017-09-05T12:28:43.031Z,5
2017-09-05T12:29:45.483Z,5
2017-09-05T12:30:47.933Z,5.1
2017-09-05T12:31:50.726Z,5.4
2017-09-05T12:32:53.182Z,5.1
2017-09-05T12:33:55.628Z,5.2
2017-09-05T12:34:58.080Z,5.1
2017-09-05T12:36:00.522Z,5.1
2017-09-05T12:37:02.968Z,5.2
2017-09-05T12:38:05.416Z,5.1
2017-09-05T12:39:07.871Z,5
2017-09-05T12:40:10.311Z,5.1
2017-09-05T12:41:12.765Z,5
2017-09-05T12:42:15.217Z,5.1
2017-09-05T12:43:17.668Z,5
2017-09-05T12:44:20.127Z,5.1
2017-09-05T12:45:22.577Z,5
2017-09-05T12:46:25.026Z,5
2017-09-05T12:47:27.481Z,5.1
2017-09-05T12:48:29.924Z,5.1
2017-09-05T12:49:32.377Z,5.1
2017-09-05T12:50:34.825Z,4.9
2017-09-05T12:51:37.270Z,4.9
2017-09-05T12:52:39.722Z,4.9
2017-09-05T12:53:42.171Z,4.9
2017-09-05T12:54:44.616Z,4.9
2017-09-05T12:55:47.067Z,5
2017-09-05T12:56:49.510Z,4.9
2017-09-05T12:57:51.965Z,4.8
2017-09-05T12:58:54.412Z,4.8
2017-09-05T12:59:57.190Z,5
2017-09-05T13:00:59.646Z,5
2017-09-05T13:02:02.095Z,5
2017-09-05T13:03:04.549Z,4.9
2017-09-05T13:04:07.342Z,5
2017-09-05T13:05:09.789Z,4.9
2017-09-05T13:06:12.236Z,5
2017-09-05T13:07:14.687Z,5.2
2017-09-05T13:08:17.130Z,4.8
2017-09-05T13:09:19.584Z,4.8
2017-09-05T13:10:22.706Z,5.2
2017-09-05T13:11:25.151Z,5
2017-09-05T13:12:27.608Z,4.9
2017-09-05T13:13:30.399Z,4.9
2017-09-05T13:14:32.840Z,5.1
2017-09-05T13:15:35.293Z,5.1
2017-09-05T13:16:37.742Z,4.9
2017-09-05T13:17:40.202Z,4.9
2017-09-05T13:18:42.997Z,5
2017-09-05T13:19:45.447Z,5
2017-09-05T13:20:47.891Z,5
2017-09-05T13:21:50.347Z,5.1
2017-09-05T13:22:52.793Z,5
2017-09-05T13:23:55.238Z,4.9
2017-09-05T13:24:57.687Z,5
2017-09-05T13:26:00.139Z,5
2017-09-05T13:27:02.587Z,5
2017-09-05T13:28:05.039Z,5
2017-09-05T13:29:08.187Z,5
2017-09-05T13:30:10.637Z,5
2017-09-05T13:31:13.075Z,5
2017-09-05T13:32:15.524Z,4.9
2017-09-05T13:33:17.971Z,4.9
2017-09-05T13:34:20.414Z,4.9
2017-09-05T13:35:22.866Z,4.9
2017-09-05T13:36:25.309Z,4.9
2017-09-05T13:37:27.756Z,4.9
2017-09-05T13:38:30.549Z,4.9
2017-09-05T13:39:33.008Z,4.8
2017-09-05T13:40:35.793Z,4.9
2017-09-05T13:41:38.240Z,4.9
2017-09-05T13:42:41.022Z,4.8
2017-09-05T13:43:43.472Z,4.8
2017-09-05T13:44:45.918Z,4.8
2017-09-05T13:45:48.356Z,4.8
2017-09-05T13:46:50.809Z,4.9
2017-09-05T13:47:53.256Z,4.9
2017-09-05T13:48:55.706Z,4.9
2017-09-05T13:49:58.156Z,4.8
2017-09-05T13:51:00.939Z,4.9
2017-09-05T13:52:03.384Z,4.9
2017-09-05T13:53:05.837Z,4.9
2017-09-05T13:54:08.282Z,4.8
2017-09-05T13:55:10.722Z,4.8
2017-09-05T13:56:13.168Z,4.8
2017-09-05T13:57:15.616Z,4.9
2017-09-05T13:58:18.069Z,4.7
2017-09-05T13:59:20.508Z,4.8
2017-09-05T14:00:23.298Z,4.9
2017-09-05T14:01:25.746Z,4.8
2017-09-05T14:02:28.198Z,4.8
2017-09-05T14:03:30.647Z,4.9
2017-09-05T14:04:33.093Z,5
2017-09-05T14:05:35.544Z,4.9
2017-09-05T14:06:38.339Z,4.8
2017-09-05T14:07:40.787Z,4.8
2017-09-05T14:08:43.612Z,5
2017-09-05T14:09:46.065Z,4.8
2017-09-05T14:10:48.512Z,4.8
2017-09-05T14:11:50.958Z,4.9
2017-09-05T14:12:53.412Z,4.9
2017-09-05T14:13:55.859Z,4.9
2017-09-05T14:14:58.649Z,5
2017-09-05T14:16:01.102Z,4.9
2017-09-05T14:17:03.551Z,4.9
2017-09-05T14:18:06.001Z,4.9
2017-09-05T14:19:08.448Z,4.9
2017-09-05T14:20:10.893Z,4.9
2017-09-05T14:21:13.349Z,4.8
2017-09-05T14:22:15.799Z,4.9
2017-09-05T14:23:18.577Z,4.9
2017-09-05T14:24:21.029Z,4.8
2017-09-05T14:25:23.475Z,4.8